createdAt,value
2017-10-08T00:00:30.894Z,999.79
2017-10-08T00:01:11.475Z,999.76
2017-10-08T00:01:52.028Z,999.8
2017-10-08T00:02:32.590Z,999.76
2017-10-08T00:03:13.169Z,999.8
2017-10-08T00:03:53.752Z,999.83
2017-10-08T00:04:34.352Z,999.79
2017-10-08T00:05:14.959Z,999.74
2017-10-08T00:05:55.547Z,999.71
2017-10-08T00:06:36.157Z,999.77
2017-10-08T00:07:16.764Z,999.71
2017-10-08T00:07:57.358Z,999.7
2017-10-08T00:08:37.972Z,999.7
2017-10-08T00:09:18.539Z,999.73
2017-10-08T00:09:59.123Z,999.72
2017-10-08T00:10:39.688Z,999.7
2017-10-08T00:11:20.262Z,999.72
2017-10-08T00:12:00.838Z,999.72
2017-10-08T00:12:41.409Z,999.75
2017-10-08T00:13:21.986Z,999.75
2017-10-08T00:14:02.603Z,999.78
2017-10-08T00:14:43.207Z,999.72
2017-10-08T00:15:23.808Z,999.73
2017-10-08T00:16:04.353Z,999.71
2017-10-08T00:16:44.941Z,999.69
2017-10-08T00:17:25.541Z,999.68
2017-10-08T00:18:06.135Z,999.63
2017-10-08T00:18:46.731Z,999.67
2017-10-08T00:19:27.363Z,999.68
2017-10-08T00:20:07.950Z,999.66
2017-10-08T00:20:48.523Z,999.67
2017-10-08T00:21:29.084Z,999.68
2017-10-08T00:22:09.645Z,999.71
2017-10-08T00:22:50.229Z,999.67
2017-10-08T00:23:30.817Z,999.71
2017-10-08T00:24:11.421Z,999.77
2017-10-08T00:24:51.987Z,999.73
2017-10-08T00:25:32.576Z,999.74
2017-10-08T00:26:13.154Z,999.7
2017-10-08T00:26:53.721Z,999.7
2017-10-08T00:27:34.294Z,999.75
2017-10-08T00:28:14.878Z,999.66
2017-10-08T00:28:55.526Z,999.73
2017-10-08T00:29:36.121Z,999.77
2017-10-08T00:30:16.707Z,999.78
2017-10-08T00:30:57.291Z,999.74
2017-10-08T00:31:37.869Z,999.72
2017-10-08T00:32:18.425Z,999.74
2017-10-08T00:32:59.004Z,999.8
2017-10-08T00:33:39.598Z,999.7
2017-10-08T00:34:20.193Z,999.77
2017-10-08T00:35:00.761Z,999.74
2017-10-08T00:35:41.345Z,999.74
2017-10-08T00:36:21.906Z,999.69
2017-10-08T00:37:02.471Z,999.7
2017-10-08T00:37:43.036Z,999.65
2017-10-08T00:38:23.588Z,999.69
2017-10-08T00:39:04.172Z,999.69
2017-10-08T00:39:44.745Z,999.73
2017-10-08T00:40:25.318Z,999.74
2017-10-08T00:41:05.884Z,999.66
2017-10-08T00:41:46.444Z,999.69
2017-10-08T00:42:27.033Z,999.71
2017-10-08T00:43:07.618Z,999.69
2017-10-08T00:43:48.213Z,999.63
2017-10-08T00:44:28.790Z,999.68
2017-10-08T00:45:09.402Z,999.73
2017-10-08T00:45:49.993Z,999.67
2017-10-08T00:46:30.603Z,999.64
2017-10-08T00:47:11.192Z,999.74
2017-10-08T00:47:51.763Z,999.62
2017-10-08T00:48:32.338Z,999.61
2017-10-08T00:49:12.944Z,999.64
2017-10-08T00:49:53.556Z,999.62
2017-10-08T00:50:34.128Z,999.69
2017-10-08T00:51:14.707Z,999.63
2017-10-08T00:51:55.286Z,999.67
2017-10-08T00:52:35.869Z,999.69
2017-10-08T00:53:16.449Z,999.71
2017-10-08T00:53:57.116Z,999.7
2017-10-08T00:54:37.815Z,999.72
2017-10-08T00:55:18.428Z,999.7
2017-10-08T00:55:59.022Z,999.69
2017-10-08T00:56:39.618Z,999.68
2017-10-08T00:57:20.200Z,999.69
2017-10-08T00:58:00.790Z,999.69
2017-10-08T00:58:41.403Z,999.7
2017-10-08T00:59:21.978Z,999.68
2017-10-08T01:00:02.590Z,999.68
2017-10-08T01:00:43.195Z,999.66
2017-10-08T01:01:23.781Z,999.66
2017-10-08T01:02:04.362Z,999.66
2017-10-08T01:02:44.989Z,999.69
2017-10-08T01:03:25.607Z,999.68
2017-10-08T01:04:06.181Z,999.66
2017-10-08T01:04:46.747Z,999.66
2017-10-08T01:05:27.318Z,999.74
2017-10-08T01:06:07.888Z,999.67
2017-10-08T01:06:48.454Z,999.68
2017-10-08T01:07:29.052Z,999.77
2017-10-08T01:08:09.631Z,999.72
2017-10-08T01:08:50.199Z,999.72
2017-10-08T01:09:30.796Z,999.74
2017-10-08T01:10:11.385Z,999.7
2017-10-08T01:10:51.973Z,999.78
2017-10-08T01:11:32.539Z,999.7
2017-10-08T01:12:13.124Z,999.73
2017-10-08T01:12:53.688Z,999.72
2017-10-08T01:13:34.267Z,999.77
2017-10-08T01:14:14.851Z,999.78
2017-10-08T01:14:55.431Z,999.72
2017-10-08T01:15:36.030Z,999.74
2017-10-08T01:16:16.632Z,999.74
2017-10-08T01:16:57.223Z,999.73
2017-10-08T01:17:37.830Z,999.73
2017-10-08T01:18:18.418Z,999.75
2017-10-08T01:18:59.000Z,999.75
2017-10-08T01:19:39.607Z,999.71
2017-10-08T01:20:20.234Z,999.7
2017-10-08T01:21:00.825Z,999.74
2017-10-08T01:21:41.468Z,999.8
2017-10-08T01:22:22.054Z,999.77
2017-10-08T01:23:02.649Z,999.75
2017-10-08T01:23:43.225Z,999.72
2017-10-08T01:24:23.861Z,999.78
2017-10-08T01:25:04.450Z,999.69
2017-10-08T01:25:45.052Z,999.77
2017-10-08T01:26:25.660Z,999.68
2017-10-08T01:27:06.258Z,999.74
2017-10-08T01:27:46.859Z,999.74
2017-10-08T01:28:27.451Z,999.75
2017-10-08T01:29:08.052Z,999.83
2017-10-08T01:29:48.649Z,999.74
2017-10-08T01:30:29.243Z,999.79
2017-10-08T01:31:09.813Z,999.75
2017-10-08T01:31:50.409Z,999.83
2017-10-08T01:32:31.008Z,999.75
2017-10-08T01:33:11.625Z,999.73
2017-10-08T01:33:52.235Z,999.75
2017-10-08T01:34:32.835Z,999.83
2017-10-08T01:35:13.437Z,999.73
2017-10-08T01:35:54.013Z,999.73
2017-10-08T01:36:34.614Z,999.85
2017-10-08T01:37:15.239Z,999.8
2017-10-08T01:37:55.830Z,999.8
2017-10-08T01:38:36.437Z,999.83
2017-10-08T01:39:17.069Z,999.86
2017-10-08T01:39:57.709Z,999.81
2017-10-08T01:40:38.283Z,999.89
2017-10-08T01:41:18.887Z,999.86
2017-10-08T01:41:59.479Z,999.88
2017-10-08T01:42:40.066Z,999.9
2017-10-08T01:43:20.651Z,999.85
2017-10-08T01:44:01.242Z,999.85
2017-10-08T01:44:41.818Z,999.84
2017-10-08T01:45:22.392Z,999.85
2017-10-08T01:46:03.016Z,999.86
2017-10-08T01:46:43.607Z,999.86
2017-10-08T01:47:24.225Z,999.87
2017-10-08T01:48:04.831Z,999.88
2017-10-08T01:48:45.429Z,999.87
2017-10-08T01:49:26.054Z,999.83
2017-10-08T01:50:06.645Z,999.85
2017-10-08T01:50:47.215Z,999.83
2017-10-08T01:51:27.807Z,999.87
2017-10-08T01:52:08.394Z,999.9
2017-10-08T01:52:48.970Z,999.88
2017-10-08T01:53:29.536Z,999.91
2017-10-08T01:54:10.113Z,999.82
2017-10-08T01:54:50.673Z,999.81
2017-10-08T01:55:31.246Z,999.85
2017-10-08T01:56:11.818Z,999.88
2017-10-08T01:56:52.420Z,999.88
2017-10-08T01:57:33.002Z,999.91
2017-10-08T01:58:13.596Z,999.86
2017-10-08T01:58:54.214Z,999.87
2017-10-08T01:59:34.793Z,999.87
2017-10-08T02:00:15.380Z,999.9
2017-10-08T02:00:55.972Z,999.82
2017-10-08T02:01:36.552Z,999.89
2017-10-08T02:02:17.137Z,999.89
2017-10-08T02:02:57.744Z,999.89
2017-10-08T02:03:38.340Z,999.85
2017-10-08T02:04:19.007Z,999.89
2017-10-08T02:04:59.649Z,999.97
2017-10-08T02:05:40.230Z,999.86
2017-10-08T02:06:20.825Z,999.94
2017-10-08T02:07:01.416Z,999.92
2017-10-08T02:07:41.978Z,999.92
2017-10-08T02:08:22.544Z,999.92
2017-10-08T02:09:03.125Z,999.87
2017-10-08T02:09:43.714Z,999.94
2017-10-08T02:10:24.330Z,999.87
2017-10-08T02:11:04.918Z,999.85
2017-10-08T02:11:45.509Z,999.86
2017-10-08T02:12:26.098Z,999.95
2017-10-08T02:13:06.672Z,1000.06
2017-10-08T02:13:47.237Z,999.97
2017-10-08T02:14:27.813Z,999.96
2017-10-08T02:15:08.405Z,999.99
2017-10-08T02:15:48.974Z,1000.04
2017-10-08T02:16:29.588Z,999.99
2017-10-08T02:17:10.176Z,1000.01
2017-10-08T02:17:50.783Z,1000.04
2017-10-08T02:18:31.359Z,1000.02
2017-10-08T02:19:11.942Z,1000.07
2017-10-08T02:19:52.516Z,1000.04
2017-10-08T02:20:33.083Z,1000.04
2017-10-08T02:21:13.661Z,999.98
2017-10-08T02:21:54.268Z,1000.01
2017-10-08T02:22:34.872Z,1000.03
2017-10-08T02:23:15.438Z,1000.05
2017-10-08T02:23:56.035Z,1000.08
2017-10-08T02:24:36.626Z,1000.09
2017-10-08T02:25:17.216Z,1000.06
2017-10-08T02:25:57.802Z,1000.1
2017-10-08T02:26:38.397Z,1000.15
2017-10-08T02:27:18.972Z,1000.11
2017-10-08T02:27:59.546Z,1000.14
2017-10-08T02:28:40.112Z,1000.18
2017-10-08T02:29:20.716Z,1000.13
2017-10-08T02:30:01.310Z,1000.13
2017-10-08T02:30:41.911Z,1000.1
2017-10-08T02:31:22.492Z,1000.11
2017-10-08T02:32:03.078Z,1000.13
2017-10-08T02:32:43.669Z,1000.11
2017-10-08T02:33:24.263Z,1000.1
2017-10-08T02:34:04.873Z,1000.15
2017-10-08T02:34:45.440Z,1000.15
2017-10-08T02:35:26.034Z,1000.18
2017-10-08T02:36:06.636Z,1000.18
2017-10-08T02:36:47.202Z,1000.2
2017-10-08T02:37:27.824Z,1000.18
2017-10-08T02:38:08.409Z,1000.14
2017-10-08T02:38:48.987Z,1000.19
2017-10-08T02:39:29.586Z,1000.19
2017-10-08T02:40:10.183Z,1000.23
2017-10-08T02:40:50.763Z,1000.19
2017-10-08T02:41:31.352Z,1000.22
2017-10-08T02:42:11.930Z,1000.21
2017-10-08T02:42:52.525Z,1000.19
2017-10-08T02:43:33.096Z,1000.19
2017-10-08T02:44:13.670Z,1000.21
2017-10-08T02:44:54.256Z,1000.19
2017-10-08T02:45:34.851Z,1000.21
2017-10-08T02:46:15.464Z,1000.21
2017-10-08T02:46:56.060Z,1000.25
2017-10-08T02:47:36.661Z,1000.25
2017-10-08T02:48:17.271Z,1000.25
2017-10-08T02:48:57.841Z,1000.21
2017-10-08T02:49:38.454Z,1000.25
2017-10-08T02:50:19.065Z,1000.27
2017-10-08T02:50:59.645Z,1000.25
2017-10-08T02:51:40.232Z,1000.28
2017-10-08T02:52:20.838Z,1000.27
2017-10-08T02:53:01.420Z,1000.34
2017-10-08T02:53:42.014Z,1000.3
2017-10-08T02:54:22.626Z,1000.3
2017-10-08T02:55:03.184Z,1000.25
2017-10-08T02:55:43.741Z,1000.26
2017-10-08T02:56:24.351Z,1000.33
2017-10-08T02:57:04.941Z,1000.32
2017-10-08T02:57:45.538Z,1000.32
2017-10-08T02:58:26.105Z,1000.33
2017-10-08T02:59:06.723Z,1000.28
2017-10-08T02:59:47.295Z,1000.27
2017-10-08T03:00:27.858Z,1000.28
2017-10-08T03:01:08.454Z,1000.28
2017-10-08T03:01:49.047Z,1000.32
2017-10-08T03:02:29.617Z,1000.28
2017-10-08T03:03:10.179Z,1000.34
2017-10-08T03:03:50.745Z,1000.28
2017-10-08T03:04:31.312Z,1000.34
2017-10-08T03:05:11.899Z,1000.27
2017-10-08T03:05:52.475Z,1000.36
2017-10-08T03:06:33.067Z,1000.3
2017-10-08T03:07:13.659Z,1000.35
2017-10-08T03:07:54.218Z,1000.34
2017-10-08T03:08:34.782Z,1000.36
2017-10-08T03:09:15.343Z,1000.31
2017-10-08T03:09:55.926Z,1000.33
2017-10-08T03:10:36.516Z,1000.31
2017-10-08T03:11:17.123Z,1000.39
2017-10-08T03:11:57.690Z,1000.35
2017-10-08T03:12:38.288Z,1000.35
2017-10-08T03:13:18.889Z,1000.36
2017-10-08T03:13:59.450Z,1000.35
2017-10-08T03:14:40.030Z,1000.42
2017-10-08T03:15:20.608Z,1000.39
2017-10-08T03:16:01.175Z,1000.37
2017-10-08T03:16:41.748Z,1000.36
2017-10-08T03:17:22.340Z,1000.41
2017-10-08T03:18:02.912Z,1000.39
2017-10-08T03:18:43.515Z,1000.44
2017-10-08T03:19:24.075Z,1000.42
2017-10-08T03:20:04.678Z,1000.45
2017-10-08T03:20:45.252Z,1000.45
2017-10-08T03:21:25.812Z,1000.45
2017-10-08T03:22:06.395Z,1000.48
2017-10-08T03:22:46.958Z,1000.46
2017-10-08T03:23:27.525Z,1000.46
2017-10-08T03:24:08.099Z,1000.44
2017-10-08T03:24:48.671Z,1000.45
2017-10-08T03:25:29.255Z,1000.46
2017-10-08T03:26:09.831Z,1000.51
2017-10-08T03:26:50.403Z,1000.53
2017-10-08T03:27:30.998Z,1000.51
2017-10-08T03:28:11.625Z,1000.5
2017-10-08T03:28:52.193Z,1000.54
2017-10-08T03:29:32.762Z,1000.52
2017-10-08T03:30:13.333Z,1000.58
2017-10-08T03:30:53.953Z,1000.51
2017-10-08T03:31:34.517Z,1000.55
2017-10-08T03:32:15.093Z,1000.53
2017-10-08T03:32:55.705Z,1000.56
2017-10-08T03:33:36.328Z,1000.6
2017-10-08T03:34:16.902Z,1000.64
2017-10-08T03:34:57.451Z,1000.66
2017-10-08T03:35:38.024Z,1000.62
2017-10-08T03:36:18.598Z,1000.63
2017-10-08T03:36:59.213Z,1000.65
2017-10-08T03:37:39.809Z,1000.63
2017-10-08T03:38:20.426Z,1000.64
2017-10-08T03:39:01.013Z,1000.63
2017-10-08T03:39:41.597Z,1000.66
2017-10-08T03:40:22.207Z,1000.69
2017-10-08T03:41:02.820Z,1000.65
2017-10-08T03:41:43.420Z,1000.64
2017-10-08T03:42:24.036Z,1000.66
2017-10-08T03:43:04.619Z,1000.64
2017-10-08T03:43:45.332Z,1000.73
2017-10-08T03:44:25.923Z,1000.65
2017-10-08T03:45:06.515Z,1000.65
2017-10-08T03:45:47.098Z,1000.66
2017-10-08T03:46:27.758Z,1000.67
2017-10-08T03:47:08.362Z,1000.67
2017-10-08T03:47:48.965Z,1000.68
2017-10-08T03:48:29.583Z,1000.71
2017-10-08T03:49:10.189Z,1000.71
2017-10-08T03:49:50.805Z,1000.68
2017-10-08T03:50:31.419Z,1000.65
2017-10-08T03:51:11.976Z,1000.71
2017-10-08T03:51:52.589Z,1000.68
2017-10-08T03:52:33.154Z,1000.71
2017-10-08T03:53:13.764Z,1000.71
2017-10-08T03:53:54.353Z,1000.7
2017-10-08T03:54:34.981Z,1000.7
2017-10-08T03:55:15.575Z,1000.69
2017-10-08T03:55:56.202Z,1000.7
2017-10-08T03:56:36.826Z,1000.73
2017-10-08T03:57:17.430Z,1000.76
2017-10-08T03:57:58.004Z,1000.76
2017-10-08T03:58:38.575Z,1000.73
2017-10-08T03:59:19.176Z,1000.72
2017-10-08T03:59:59.750Z,1000.75
2017-10-08T04:00:40.311Z,1000.74
2017-10-08T04:01:20.881Z,1000.76
2017-10-08T04:02:01.450Z,1000.75
2017-10-08T04:02:42.047Z,1000.78
2017-10-08T04:03:22.631Z,1000.75
2017-10-08T04:04:03.216Z,1000.79
2017-10-08T04:04:43.819Z,1000.74
2017-10-08T04:05:24.429Z,1000.78
2017-10-08T04:06:05.060Z,1000.77
2017-10-08T04:06:45.663Z,1000.77
2017-10-08T04:07:26.262Z,1000.77
2017-10-08T04:08:06.894Z,1000.74
2017-10-08T04:08:47.523Z,1000.79
2017-10-08T04:09:28.123Z,1000.8
2017-10-08T04:10:08.691Z,1000.75
2017-10-08T04:10:49.262Z,1000.8
2017-10-08T04:11:29.836Z,1000.8
2017-10-08T04:12:10.448Z,1000.78
2017-10-08T04:12:51.062Z,1000.79
2017-10-08T04:13:31.638Z,1000.81
2017-10-08T04:14:12.237Z,1000.77
2017-10-08T04:14:52.838Z,1000.8
2017-10-08T04:15:33.414Z,1000.78
2017-10-08T04:16:13.996Z,1000.77
2017-10-08T04:16:54.590Z,1000.85
2017-10-08T04:17:35.186Z,1000.84
2017-10-08T04:18:15.847Z,1000.85
2017-10-08T04:18:56.458Z,1000.83
2017-10-08T04:19:37.022Z,1000.83
2017-10-08T04:20:17.606Z,1000.9
2017-10-08T04:20:58.195Z,1000.86
2017-10-08T04:21:38.778Z,1000.83
2017-10-08T04:22:19.357Z,1000.89
2017-10-08T04:23:00.218Z,1000.89
2017-10-08T04:23:40.796Z,1000.86
2017-10-08T04:24:21.364Z,1000.86
2017-10-08T04:25:01.946Z,1000.89
2017-10-08T04:25:42.516Z,1000.85
2017-10-08T04:26:23.112Z,1000.9
2017-10-08T04:27:03.728Z,1000.91
2017-10-08T04:27:44.313Z,1000.88
2017-10-08T04:28:24.953Z,1000.92
2017-10-08T04:29:05.561Z,1000.95
2017-10-08T04:29:46.130Z,1000.86
2017-10-08T04:30:26.714Z,1000.92
2017-10-08T04:31:07.306Z,1000.87
2017-10-08T04:31:47.923Z,1000.93
2017-10-08T04:32:28.504Z,1000.89
2017-10-08T04:33:09.116Z,1000.9
2017-10-08T04:33:49.713Z,1000.87
2017-10-08T04:34:30.298Z,1000.95
2017-10-08T04:35:10.874Z,1001
2017-10-08T04:35:51.454Z,1000.95
2017-10-08T04:36:32.040Z,1000.9
2017-10-08T04:37:12.624Z,1000.9
2017-10-08T04:37:53.226Z,1000.87
2017-10-08T04:38:33.847Z,1000.92
2017-10-08T04:39:14.441Z,1000.91
2017-10-08T04:39:55.038Z,1000.91
2017-10-08T04:40:35.599Z,1000.96
2017-10-08T04:41:16.189Z,1000.97
2017-10-08T04:41:56.818Z,1000.98
2017-10-08T04:42:37.424Z,1000.97
2017-10-08T04:43:18.007Z,1000.96
2017-10-08T04:43:58.609Z,1000.96
2017-10-08T04:44:39.201Z,1000.94
2017-10-08T04:45:19.797Z,1000.95
2017-10-08T04:46:00.403Z,1000.99
2017-10-08T04:46:40.998Z,1000.93
2017-10-08T04:47:21.618Z,1000.96
2017-10-08T04:48:02.216Z,1000.97
2017-10-08T04:48:42.811Z,1000.98
2017-10-08T04:49:23.372Z,1000.95
2017-10-08T04:50:03.961Z,1000.9
2017-10-08T04:50:44.536Z,1000.97
2017-10-08T04:51:25.165Z,1000.95
2017-10-08T04:52:05.866Z,1000.95
2017-10-08T04:52:46.428Z,1001
2017-10-08T04:53:27.024Z,1000.97
2017-10-08T04:54:07.645Z,1001.03
2017-10-08T04:54:48.201Z,1001.05
2017-10-08T04:55:28.784Z,1001.06
2017-10-08T04:56:09.361Z,1001.07
2017-10-08T04:56:49.967Z,1001.12
2017-10-08T04:57:30.553Z,1001.19
2017-10-08T04:58:11.146Z,1001.25
2017-10-08T04:58:51.736Z,1001.27
2017-10-08T04:59:32.353Z,1001.32
2017-10-08T05:00:12.936Z,1001.36
2017-10-08T05:00:53.597Z,1001.38
2017-10-08T05:01:34.198Z,1001.39
2017-10-08T05:02:14.759Z,1001.36
2017-10-08T05:02:55.396Z,1001.38
2017-10-08T05:03:35.997Z,1001.41
2017-10-08T05:04:16.578Z,1001.4
2017-10-08T05:04:57.168Z,1001.46
2017-10-08T05:05:37.778Z,1001.38
2017-10-08T05:06:18.364Z,1001.46
2017-10-08T05:06:58.950Z,1001.52
2017-10-08T05:07:39.531Z,1001.47
2017-10-08T05:08:20.130Z,1001.49
2017-10-08T05:09:00.732Z,1001.5
2017-10-08T05:09:41.323Z,1001.47
2017-10-08T05:10:21.912Z,1001.46
2017-10-08T05:11:02.565Z,1001.45
2017-10-08T05:11:43.191Z,1001.55
2017-10-08T05:12:23.844Z,1001.53
2017-10-08T05:13:04.429Z,1001.56
2017-10-08T05:13:45.029Z,1001.48
2017-10-08T05:14:25.640Z,1001.57
2017-10-08T05:15:06.229Z,1001.53
2017-10-08T05:15:46.796Z,1001.52
2017-10-08T05:16:27.395Z,1001.59
2017-10-08T05:17:08.003Z,1001.6
2017-10-08T05:17:48.660Z,1001.61
2017-10-08T05:18:29.189Z,1001.63
2017-10-08T05:19:09.783Z,1001.61
2017-10-08T05:19:50.409Z,1001.63
2017-10-08T05:20:30.992Z,1001.63
2017-10-08T05:21:11.601Z,1001.64
2017-10-08T05:21:52.194Z,1001.64
2017-10-08T05:22:32.809Z,1001.68
2017-10-08T05:23:13.407Z,1001.69
2017-10-08T05:23:54.018Z,1001.69
2017-10-08T05:24:34.611Z,1001.64
2017-10-08T05:25:15.232Z,1001.73
2017-10-08T05:25:55.881Z,1001.71
2017-10-08T05:26:36.461Z,1001.74
2017-10-08T05:27:17.050Z,1001.73
2017-10-08T05:27:57.627Z,1001.74
2017-10-08T05:28:38.272Z,1001.75
2017-10-08T05:29:18.844Z,1001.75
2017-10-08T05:29:59.453Z,1001.69
2017-10-08T05:30:40.037Z,1001.75
2017-10-08T05:31:20.649Z,1001.81
2017-10-08T05:32:01.230Z,1001.82
2017-10-08T05:32:41.795Z,1001.85
2017-10-08T05:33:22.373Z,1001.83
2017-10-08T05:34:02.945Z,1001.83
2017-10-08T05:34:43.533Z,1001.82
2017-10-08T05:35:24.122Z,1001.81
2017-10-08T05:36:04.685Z,1001.79
2017-10-08T05:36:45.240Z,1001.82
2017-10-08T05:37:25.872Z,1001.84
2017-10-08T05:38:06.452Z,1001.82
2017-10-08T05:38:47.047Z,1001.88
2017-10-08T05:39:27.635Z,1001.85
2017-10-08T05:40:08.198Z,1001.85
2017-10-08T05:40:48.781Z,1001.88
2017-10-08T05:41:29.381Z,1001.95
2017-10-08T05:42:09.980Z,1001.94
2017-10-08T05:42:50.578Z,1001.94
2017-10-08T05:43:31.183Z,1001.96
2017-10-08T05:44:11.771Z,1001.94
2017-10-08T05:44:52.341Z,1001.96
2017-10-08T05:45:32.922Z,1001.97
2017-10-08T05:46:13.507Z,1001.97
2017-10-08T05:46:54.085Z,1002
2017-10-08T05:47:34.666Z,1002.01
2017-10-08T05:48:15.240Z,1001.99
2017-10-08T05:48:55.834Z,1001.99
2017-10-08T05:49:36.445Z,1001.92
2017-10-08T05:50:17.026Z,1001.96
2017-10-08T05:50:57.635Z,1001.97
2017-10-08T05:51:38.337Z,1001.95
2017-10-08T05:52:18.847Z,1001.99
2017-10-08T05:52:59.482Z,1002
2017-10-08T05:53:40.110Z,1001.99
2017-10-08T05:54:20.688Z,1002.04
2017-10-08T05:55:01.304Z,1002.03
2017-10-08T05:55:42.322Z,1002.04
2017-10-08T05:56:22.912Z,1002.08
2017-10-08T05:57:03.475Z,1002.05
2017-10-08T05:57:44.123Z,1002.05
2017-10-08T05:58:25.083Z,1002.07
2017-10-08T05:59:06.039Z,1002.06
2017-10-08T05:59:46.596Z,1002.06
2017-10-08T06:00:28.300Z,1002.09
2017-10-08T06:01:09.441Z,1002.14
2017-10-08T06:01:50.277Z,1002.16
2017-10-08T06:02:31.357Z,1002.11
2017-10-08T06:03:12.182Z,1002.17
2017-10-08T06:03:52.842Z,1002.19
2017-10-08T06:04:33.450Z,1002.19
2017-10-08T06:05:14.053Z,1002.22
2017-10-08T06:05:54.589Z,1002.23
2017-10-08T06:06:35.176Z,1002.3
2017-10-08T06:07:15.744Z,1002.24
2017-10-08T06:07:56.353Z,1002.28
2017-10-08T06:08:37.255Z,1002.32
2017-10-08T06:09:18.150Z,1002.3
2017-10-08T06:09:58.748Z,1002.37
2017-10-08T06:10:40.213Z,1002.39
2017-10-08T06:11:20.236Z,1002.38
2017-10-08T06:12:00.828Z,1002.41
2017-10-08T06:12:41.470Z,1002.34
2017-10-08T06:13:22.053Z,1002.41
2017-10-08T06:14:02.642Z,1002.37
2017-10-08T06:14:43.550Z,1002.38
2017-10-08T06:15:24.309Z,1002.41
2017-10-08T06:16:04.962Z,1002.42
2017-10-08T06:16:45.542Z,1002.42
2017-10-08T06:17:26.134Z,1002.44
2017-10-08T06:18:06.760Z,1002.4
2017-10-08T06:18:47.331Z,1002.43
2017-10-08T06:19:28.050Z,1002.46
2017-10-08T06:20:10.546Z,1002.44
2017-10-08T06:20:53.685Z,1002.46
2017-10-08T06:21:34.391Z,1002.47
2017-10-08T06:22:15.651Z,1002.48
2017-10-08T06:22:57.017Z,1002.52
2017-10-08T06:23:38.892Z,1002.51
2017-10-08T06:24:20.082Z,1002.57
2017-10-08T06:25:00.591Z,1002.57
2017-10-08T06:25:42.651Z,1002.6
2017-10-08T06:26:23.223Z,1002.65
2017-10-08T06:27:03.804Z,1002.63
2017-10-08T06:27:44.360Z,1002.69
2017-10-08T06:28:24.920Z,1002.66
2017-10-08T06:29:07.635Z,1002.68
2017-10-08T06:29:48.261Z,1002.72
2017-10-08T06:30:28.867Z,1002.75
2017-10-08T06:31:09.479Z,1002.75
2017-10-08T06:31:50.086Z,1002.75
2017-10-08T06:32:30.671Z,1002.81
2017-10-08T06:33:11.232Z,1002.82
2017-10-08T06:33:51.807Z,1002.85
2017-10-08T06:34:32.376Z,1002.84
2017-10-08T06:35:12.951Z,1002.89
2017-10-08T06:35:53.525Z,1002.9
2017-10-08T06:36:34.087Z,1002.91
2017-10-08T06:37:14.696Z,1002.94
2017-10-08T06:37:55.280Z,1002.88
2017-10-08T06:38:35.887Z,1002.89
2017-10-08T06:39:16.529Z,1002.89
2017-10-08T06:39:57.102Z,1002.97
2017-10-08T06:40:37.694Z,1002.94
2017-10-08T06:41:18.299Z,1002.91
2017-10-08T06:41:58.892Z,1002.92
2017-10-08T06:42:39.499Z,1002.92
2017-10-08T06:43:20.098Z,1002.95
2017-10-08T06:44:00.717Z,1002.95
2017-10-08T06:44:41.314Z,1002.96
2017-10-08T06:45:21.916Z,1002.97
2017-10-08T06:46:02.512Z,1002.98
2017-10-08T06:46:43.073Z,1002.97
2017-10-08T06:47:23.727Z,1003.02
2017-10-08T06:48:04.337Z,1003
2017-10-08T06:48:44.928Z,1003.01
2017-10-08T06:49:25.500Z,1003
2017-10-08T06:50:06.082Z,1003.01
2017-10-08T06:50:46.659Z,1003.02
2017-10-08T06:51:27.245Z,1003.04
2017-10-08T06:52:07.896Z,1003.06
2017-10-08T06:52:48.510Z,1003.09
2017-10-08T06:53:29.104Z,1003.08
2017-10-08T06:54:09.691Z,1003.17
2017-10-08T06:54:50.295Z,1003.15
2017-10-08T06:55:30.897Z,1003.13
2017-10-08T06:56:11.490Z,1003.21
2017-10-08T06:56:52.080Z,1003.25
2017-10-08T06:57:32.730Z,1003.31
2017-10-08T06:58:13.305Z,1003.32
2017-10-08T06:58:53.890Z,1003.31
2017-10-08T06:59:34.471Z,1003.28
2017-10-08T07:00:15.089Z,1003.3
2017-10-08T07:00:55.718Z,1003.34
2017-10-08T07:01:36.298Z,1003.34
2017-10-08T07:02:16.879Z,1003.35
2017-10-08T07:02:57.474Z,1003.36
2017-10-08T07:03:38.060Z,1003.36
2017-10-08T07:04:18.622Z,1003.36
2017-10-08T07:04:59.199Z,1003.37
2017-10-08T07:05:39.780Z,1003.42
2017-10-08T07:06:21.963Z,1003.42
2017-10-08T07:07:02.603Z,1003.44
2017-10-08T07:07:44.406Z,1003.4
2017-10-08T07:08:25.129Z,1003.45
2017-10-08T07:09:05.637Z,1003.41
2017-10-08T07:09:46.237Z,1003.43
2017-10-08T07:10:27.432Z,1003.46
2017-10-08T07:11:08.125Z,1003.46
2017-10-08T07:11:48.994Z,1003.46
2017-10-08T07:12:29.595Z,1003.5
2017-10-08T07:13:10.244Z,1003.45
2017-10-08T07:13:53.108Z,1003.47
2017-10-08T07:14:33.684Z,1003.42
2017-10-08T07:15:14.281Z,1003.51
2017-10-08T07:15:55.681Z,1003.53
2017-10-08T07:16:36.477Z,1003.48
2017-10-08T07:17:19.607Z,1003.53
2017-10-08T07:18:00.618Z,1003.49
2017-10-08T07:18:43.592Z,1003.52
2017-10-08T07:19:24.205Z,1003.49
2017-10-08T07:20:04.813Z,1003.48
2017-10-08T07:20:45.865Z,1003.52
2017-10-08T07:21:27.531Z,1003.46
2017-10-08T07:22:08.218Z,1003.44
2017-10-08T07:22:48.842Z,1003.43
2017-10-08T07:23:29.462Z,1003.51
2017-10-08T07:24:10.041Z,1003.54
2017-10-08T07:24:50.602Z,1003.51
2017-10-08T07:25:31.197Z,1003.54
2017-10-08T07:26:11.807Z,1003.6
2017-10-08T07:26:52.403Z,1003.62
2017-10-08T07:27:33.013Z,1003.69
2017-10-08T07:28:13.618Z,1003.7
2017-10-08T07:28:54.209Z,1003.7
2017-10-08T07:29:34.767Z,1003.71
2017-10-08T07:30:15.350Z,1003.75
2017-10-08T07:30:55.932Z,1003.75
2017-10-08T07:31:36.514Z,1003.75
2017-10-08T07:32:17.111Z,1003.75
2017-10-08T07:32:57.715Z,1003.78
2017-10-08T07:33:38.329Z,1003.81
2017-10-08T07:34:18.902Z,1003.81
2017-10-08T07:34:59.474Z,1003.84
2017-10-08T07:35:40.047Z,1003.83
2017-10-08T07:36:20.627Z,1003.85
2017-10-08T07:37:01.208Z,1003.83
2017-10-08T07:37:41.802Z,1003.86
2017-10-08T07:38:22.439Z,1003.86
2017-10-08T07:39:03.086Z,1003.89
2017-10-08T07:39:44.559Z,1003.86
2017-10-08T07:40:25.130Z,1003.87
2017-10-08T07:41:05.729Z,1003.88
2017-10-08T07:41:46.269Z,1003.91
2017-10-08T07:42:26.931Z,1003.98
2017-10-08T07:43:07.543Z,1003.95
2017-10-08T07:43:48.116Z,1003.97
2017-10-08T07:44:28.718Z,1004.01
2017-10-08T07:45:09.293Z,1003.97
2017-10-08T07:45:49.934Z,1003.99
2017-10-08T07:46:30.512Z,1004
2017-10-08T07:47:11.152Z,1004.05
2017-10-08T07:47:51.726Z,1004.06
2017-10-08T07:48:32.310Z,1004.04
2017-10-08T07:49:12.923Z,1004.09
2017-10-08T07:49:53.485Z,1004.12
2017-10-08T07:50:34.064Z,1004.09
2017-10-08T07:51:14.675Z,1004.09
2017-10-08T07:51:55.308Z,1004.11
2017-10-08T07:52:35.907Z,1004.12
2017-10-08T07:53:16.492Z,1004.08
2017-10-08T07:53:57.097Z,1004.16
2017-10-08T07:54:37.750Z,1004.15
2017-10-08T07:55:18.324Z,1004.14
2017-10-08T07:55:58.916Z,1004.17
2017-10-08T07:56:39.537Z,1004.16
2017-10-08T07:57:20.133Z,1004.21
2017-10-08T07:58:00.786Z,1004.23
2017-10-08T07:58:41.354Z,1004.24
2017-10-08T07:59:21.951Z,1004.21
2017-10-08T08:00:02.648Z,1004.21
2017-10-08T08:00:43.253Z,1004.22
2017-10-08T08:01:23.832Z,1004.2
2017-10-08T08:02:04.390Z,1004.24
2017-10-08T08:02:44.996Z,1004.25
2017-10-08T08:03:25.584Z,1004.24
2017-10-08T08:04:06.206Z,1004.29
2017-10-08T08:04:46.782Z,1004.26
2017-10-08T08:05:27.374Z,1004.27
2017-10-08T08:06:07.966Z,1004.3
2017-10-08T08:06:48.550Z,1004.29
2017-10-08T08:07:29.127Z,1004.31
2017-10-08T08:08:09.721Z,1004.28
2017-10-08T08:08:50.310Z,1004.34
2017-10-08T08:09:30.888Z,1004.35
2017-10-08T08:10:11.476Z,1004.33
2017-10-08T08:10:52.043Z,1004.36
2017-10-08T08:11:32.621Z,1004.38
2017-10-08T08:12:13.203Z,1004.39
2017-10-08T08:12:53.780Z,1004.4
2017-10-08T08:13:34.372Z,1004.38
2017-10-08T08:14:14.957Z,1004.39
2017-10-08T08:14:55.594Z,1004.39
2017-10-08T08:15:36.371Z,1004.36
2017-10-08T08:16:17.225Z,1004.39
2017-10-08T08:16:58.318Z,1004.38
2017-10-08T08:17:39.723Z,1004.37